Crew | Aerofun Virtual



 METAR AND TAF INFORMATION
METAR FOR LCLK
ADDS - METARS form results

(1538 UTC 24 May 2019)
Data provider http://aviationweather.gov/metar/data/
 
METAR text: LCLK 241530Z 21007KT 180V240 CAVOK 28/19 Q1006 NOSIG
Conditions at: LCLK (LARNACA/LARNAX A, CY) observed 1530 UTC 24 May 2019
Temperature: 28.0°C (82°F)
Dewpoint: 19.0°C (66°F) [RH = 58%]
Pressure (altimeter): 29.70 inches Hg (1006.0 mb)
Winds: from the SSW (210 degrees) at 8 MPH (7 knots; 3.6 m/s)
Visibility: 6 or more miles (10+ km)
Ceiling: ceiling and visibility are OK
Clouds: unknown
Weather: no significant weather observed at this time

METAR text: LCLK 241500Z 20007KT CAVOK 29/19 Q1006 NOSIG
Conditions at: LCLK (LARNACA/LARNAX A, CY) observed 1500 UTC 24 May 2019
Temperature: 29.0°C (84°F)
Dewpoint: 19.0°C (66°F) [RH = 55%]
Pressure (altimeter): 29.70 inches Hg (1006.0 mb)
Winds: from the SSW (200 degrees) at 8 MPH (7 knots; 3.6 m/s)
Visibility: 6 or more miles (10+ km)
Ceiling: ceiling and visibility are OK
Clouds: unknown
Weather: no significant weather observed at this time

Forecast for: LCLK (LARNACA/LARNAX A, CY)
Text: TAF LCLK 241130Z 2412/2512 21017KT CAVOK
Forecast period: 1200 to 1600 UTC 24 May 2019
Forecast type: FROM: standard forecast or significant change
Winds: from the SSW (210 degrees) at 20 MPH (17 knots; 8.7 m/s)
Visibility: 6 or more miles 10+ km)
Ceiling: unknown
Clouds: missing
Weather: NSW  (no significant weather)
Text: PROB30 2412/2419 5000 DU
Forecast period: 1200 to 1900 UTC 24 May 2019
Forecast type: PROBABLE: 30 percent likelihood of the following during this time
Visibility: 3 miles (5 km)
Ceiling: unknown
Clouds: missing
Weather: DU  (widespread dust)
Text: BECMG 2416/2419 33009KT
Forecast period: 1600 UTC 24 May 2019 to 0800 UTC 25 May 2019
Forecast type: BECOMING: Conditions expected to become as follows by 1900 UTC 24 May 2019
Winds: from the NNW (330 degrees) at 10 MPH (9 knots; 4.6 m/s)
Visibility: 6 or more miles 10+ km)
Ceiling: unknown
Clouds: missing
Weather: NSW  (no significant weather)
Text: BECMG 2508/2511 21017KT
Forecast period: 0800 to 1200 UTC 25 May 2019
Forecast type: BECOMING: Conditions expected to become as follows by 1100 UTC 25 May 2019
Winds: from the SSW (210 degrees) at 20 MPH (17 knots; 8.7 m/s)
Visibility: 6 or more miles 10+ km)
Ceiling: unknown
Clouds: missing
Weather: NSW  (no significant weather)

 AIRPORT MAP

 RUNWAY INFORMATION
Runway 04 Runway length 9776 ft Runway width 148 ft
Runway elevation 11 ft Runway displaced threshold 0 ft Runway heading 45
Runway 22 Runway length 9776 ft Runway width 148 ft
Runway elevation 6 ft Runway displaced threshold 575 ft Runway heading 225

 AIRPORT FREQUENCIES
Type APP Name APP Frequency 121.2 MHZ
Type ATIS Name ATIS Frequency 126.55 MHZ
Type TWR Name TWR Frequency 119.4 MHZ

 AIRPORT NEAR NAVIGATION AIDS
Type VOR-DME Name Larnaca Frequency 112800 KHZ
Type NDB Name Larnaca Frequency 432 KHZ